Knoxville, TN (37902)

7:30 AM EST on March 02, 2015 (GMT -0500)
South Hills | Change Station
CLOSE
Current Station
Personal Weather Station
Location: Knoxville, TN
Elevation: 938 ft
Nearby Weather Stations

Elev 938 ft 35.93 °N, 83.93 °W | Updated 21 seconds ago

Overcast
Overcast
42.6 °F
Feels Like 41 °F
N
3.4
Wind Variable Wind from ESE
Gusts 4.9 mph

Today
High -- | Low -- °F
--% Chance of Precip.
Yesterday
High -- | Low -- °F
Precip. -- in
7:04 AM 6:31 PM
Waxing Gibbous, 91% visible
Pressure 30.37 in
Visibility 10.0 miles
Clouds Few 400 ft
Scattered Clouds 900 ft
Overcast 1300 ft
Windchill 41 °F
Dew Point 40 °F
Humidity 90%
Rainfall 0.17 in
Snow Depth Not available.
UV 0.0 out of 12
Pollen 2.70 out of 12
Air Quality Not available.
Flu Activity Not available.
SPECI KTYS 021206Z 36008KT 10SM FEW004 SCT009 OVC013 06/04 A3037 RMK AO2 T00610044 $

More Conditions Fewer Conditions

Pressure 30.37 in
Visibility 10.0 miles
Clouds Few 400 ft
Scattered Clouds 900 ft
Overcast 1300 ft
Windchill 41 °F
Dew Point 40 °F
Humidity 90%
Rainfall 0.17 in
Snow Depth Not available.
UV 0.0 out of 12
Pollen 2.70 out of 12
Air Quality Not available.
Flu Activity Not available.
SPECI KTYS 021206Z 36008KT 10SM FEW004 SCT009 OVC013 06/04 A3037 RMK AO2 T00610044 $

More Conditions Fewer Conditions

10-Day Weather Forecast

Almanac

Astronomy

Mar. 02, 2015 Rise Set
Actual Time
Civil Twilight
Nautical Twilight
Astronomical Twilight
Moon
Length of Visible Light
Length of Day
Tomorrow will be .
, % of the Moon is Illuminated

Today's Extremes

State Highs State Lows

Community

WunderPhotos

Upload Photos

1,801,772 photos uploaded!

WunderBlogs® & News

Nearby

Air Quality

  Air Quality AQ Index Pollutant
Not available.

Snow Depth

Station Depth Elevation

Earthquake Activity

City Distance Mag. Time & Date
Minimum magnitude displayed is 2.5.

Coastal Water Temperatures

Place Temperature

Nearby Weather Stations